createdAt,value
2022-10-07T00:00:10.477Z,9.65
2022-10-07T00:05:12.115Z,9.66
2022-10-07T00:10:13.765Z,9.59
2022-10-07T00:15:15.527Z,9.48
2022-10-07T00:20:17.167Z,9.40
2022-10-07T00:25:18.779Z,9.42
2022-10-07T00:30:20.388Z,9.52
2022-10-07T00:35:21.969Z,9.52
2022-10-07T00:40:23.621Z,9.49
2022-10-07T00:45:25.173Z,9.41
2022-10-07T00:50:29.578Z,9.33
2022-10-07T00:55:32.450Z,9.28
2022-10-07T01:00:34.133Z,9.30
2022-10-07T01:05:36.111Z,9.18
2022-10-07T01:10:49.610Z,9.12
2022-10-07T01:16:12.883Z,9.06
2022-10-07T01:21:24.216Z,8.99
2022-10-07T01:26:51.001Z,8.95
2022-10-07T01:32:01.351Z,8.90
2022-10-07T01:37:06.967Z,8.66
2022-10-07T01:42:09.106Z,8.70
2022-10-07T01:47:10.740Z,8.79
2022-10-07T01:52:27.190Z,8.75
2022-10-07T01:57:54.000Z,8.70
2022-10-07T02:03:14.417Z,8.67
2022-10-07T02:08:38.476Z,8.57
2022-10-07T02:13:43.472Z,8.46
2022-10-07T02:18:51.856Z,8.44
2022-10-07T02:23:56.149Z,8.36
2022-10-07T02:28:59.593Z,8.27
2022-10-07T02:34:04.437Z,8.36
2022-10-07T02:39:07.331Z,8.38
2022-10-07T02:44:30.270Z,8.35
2022-10-07T02:49:38.137Z,8.42
2022-10-07T02:54:54.779Z,8.41
2022-10-07T03:00:01.116Z,8.37
2022-10-07T03:05:02.742Z,8.39
2022-10-07T03:10:05.204Z,8.38
2022-10-07T03:15:07.171Z,8.35
2022-10-07T03:20:09.714Z,8.35
2022-10-07T03:25:12.749Z,8.30
2022-10-07T03:30:14.363Z,8.25
2022-10-07T03:35:16.777Z,8.24
2022-10-07T03:40:18.862Z,8.29
2022-10-07T03:45:20.842Z,8.27
2022-10-07T03:50:22.943Z,8.30
2022-10-07T03:55:24.544Z,8.24
2022-10-07T04:00:27.089Z,8.24
2022-10-07T04:05:29.212Z,8.18
2022-10-07T04:10:31.518Z,8.12
2022-10-07T04:15:33.484Z,8.21
2022-10-07T04:20:37.932Z,8.30
2022-10-07T04:25:44.264Z,8.19
2022-10-07T04:30:51.165Z,8.19
2022-10-07T04:35:52.757Z,8.20
2022-10-07T04:40:54.296Z,8.21
2022-10-07T04:46:07.993Z,8.26
2022-10-07T04:51:10.216Z,8.13
2022-10-07T04:56:11.785Z,8.02
2022-10-07T05:01:13.524Z,8.05
2022-10-07T05:06:15.129Z,8.01
2022-10-07T05:11:16.696Z,7.89
2022-10-07T05:16:18.340Z,7.85
2022-10-07T05:21:19.907Z,7.72
2022-10-07T05:26:21.469Z,7.64
2022-10-07T05:31:23.078Z,7.60
2022-10-07T05:36:25.210Z,7.65
2022-10-07T05:41:29.047Z,7.64
2022-10-07T05:46:30.876Z,7.68
2022-10-07T05:51:32.403Z,7.86
2022-10-07T05:56:33.966Z,8.06
2022-10-07T06:01:35.594Z,7.92
2022-10-07T06:06:37.216Z,8.02
2022-10-07T06:12:16.900Z,8.08
2022-10-07T06:17:18.441Z,8.23
2022-10-07T06:22:20.018Z,8.38
2022-10-07T06:27:22.348Z,8.53
2022-10-07T06:32:24.219Z,8.66
2022-10-07T06:37:25.818Z,8.80
2022-10-07T06:42:27.466Z,8.91
2022-10-07T06:47:29.053Z,9.08
2022-10-07T06:52:30.455Z,9.19
2022-10-07T06:57:56.024Z,9.30
2022-10-07T07:02:53.252Z,9.47
2022-10-07T07:07:57.090Z,9.59
2022-10-07T07:12:58.535Z,9.80
2022-10-07T07:18:00.263Z,9.94
2022-10-07T07:23:02.302Z,10.22
2022-10-07T07:28:04.525Z,10.57
2022-10-07T07:33:06.307Z,10.87
2022-10-07T07:38:08.524Z,11.19
2022-10-07T07:43:09.928Z,11.52
2022-10-07T07:48:13.030Z,11.71
2022-10-07T07:53:14.443Z,11.99
2022-10-07T07:58:15.839Z,12.39
2022-10-07T08:03:17.248Z,12.78
2022-10-07T08:08:18.650Z,12.97
2022-10-07T08:13:20.072Z,13.07
2022-10-07T08:18:21.729Z,13.47
2022-10-07T08:23:23.177Z,13.80
2022-10-07T08:28:27.448Z,14.00
2022-10-07T08:33:35.858Z,14.19
2022-10-07T08:38:39.539Z,14.49
2022-10-07T08:43:46.494Z,14.68
2022-10-07T08:48:54.967Z,14.68
2022-10-07T08:53:58.996Z,14.69
2022-10-07T08:59:09.578Z,14.82
2022-10-07T09:04:41.545Z,15.13
2022-10-07T09:10:09.206Z,15.39
2022-10-07T09:15:33.980Z,15.58
2022-10-07T09:20:42.146Z,15.42
2022-10-07T09:25:43.841Z,15.42
2022-10-07T09:30:45.343Z,15.43
2022-10-07T09:35:58.086Z,15.45
2022-10-07T09:41:17.818Z,15.45
2022-10-07T09:46:47.810Z,15.97
2022-10-07T09:52:15.694Z,16.08
2022-10-07T09:57:26.083Z,16.10
2022-10-07T10:02:28.240Z,16.19
2022-10-07T10:07:36.229Z,16.34
2022-10-07T10:12:46.434Z,16.66
2022-10-07T10:17:48.306Z,16.87
2022-10-07T10:22:50.684Z,16.99
2022-10-07T10:28:10.326Z,17.08
2022-10-07T10:33:31.707Z,17.08
2022-10-07T10:38:40.842Z,17.01
2022-10-07T10:44:13.083Z,17.16
2022-10-07T10:49:34.331Z,17.37
2022-10-07T10:54:54.785Z,17.43
2022-10-07T11:00:13.133Z,17.48
2022-10-07T11:05:36.715Z,17.56
2022-10-07T11:10:48.394Z,17.48
2022-10-07T11:16:00.294Z,17.63
2022-10-07T11:21:07.268Z,17.85
2022-10-07T11:26:24.443Z,17.99
2022-10-07T11:31:43.814Z,17.94
2022-10-07T11:37:03.758Z,17.94
2022-10-07T11:42:21.736Z,17.93
2022-10-07T11:47:30.357Z,17.97
2022-10-07T11:52:38.297Z,18.06
2022-10-07T11:57:43.874Z,18.03
2022-10-07T12:02:46.693Z,18.16
2022-10-07T12:08:00.488Z,18.40
2022-10-07T12:13:21.814Z,18.35
2022-10-07T12:18:26.200Z,18.55
2022-10-07T12:23:28.255Z,18.47
2022-10-07T12:28:48.717Z,18.51
2022-10-07T12:34:09.869Z,18.55
2022-10-07T12:39:11.720Z,18.57
2022-10-07T12:44:38.502Z,18.56
2022-10-07T12:49:49.899Z,18.73
2022-10-07T12:54:53.915Z,18.72
2022-10-07T13:00:14.801Z,18.67
2022-10-07T13:05:37.609Z,18.78
2022-10-07T13:11:08.364Z,18.92
2022-10-07T13:16:27.127Z,18.98
2022-10-07T13:21:36.276Z,19.04
2022-10-07T13:26:42.718Z,19.07
2022-10-07T13:32:03.159Z,19.13
2022-10-07T13:37:34.193Z,19.03
2022-10-07T13:42:35.691Z,19.12
2022-10-07T13:47:37.497Z,19.05
2022-10-07T13:52:44.334Z,19.00
2022-10-07T13:57:46.415Z,19.02
2022-10-07T14:02:51.424Z,19.04
2022-10-07T14:08:00.741Z,19.18
2022-10-07T14:13:07.240Z,19.18
2022-10-07T14:18:11.244Z,19.11
2022-10-07T14:23:31.131Z,19.02
2022-10-07T14:28:37.465Z,18.98
2022-10-07T14:34:08.193Z,18.90
2022-10-07T14:39:30.641Z,18.86
2022-10-07T14:44:32.217Z,18.89
2022-10-07T14:49:33.645Z,18.79
2022-10-07T14:54:35.143Z,18.77
2022-10-07T14:59:37.854Z,18.71
2022-10-07T15:04:40.486Z,18.60
2022-10-07T15:09:43.557Z,18.50
2022-10-07T15:14:45.039Z,18.34
2022-10-07T15:19:46.439Z,18.23
2022-10-07T15:24:47.936Z,18.09
2022-10-07T15:29:53.064Z,17.98
2022-10-07T15:34:55.191Z,17.91
2022-10-07T15:39:56.660Z,17.87
2022-10-07T15:44:58.124Z,17.79
2022-10-07T15:49:59.615Z,17.74
2022-10-07T15:55:07.872Z,17.63
2022-10-07T16:00:10.643Z,17.56
2022-10-07T16:05:13.017Z,17.48
2022-10-07T16:10:14.626Z,17.36
2022-10-07T16:15:16.621Z,17.25
2022-10-07T16:20:18.559Z,17.13
2022-10-07T16:25:19.977Z,17.00
2022-10-07T16:30:39.923Z,16.78
2022-10-07T16:35:42.256Z,16.57
2022-10-07T16:40:52.589Z,16.46
2022-10-07T16:45:53.985Z,16.38
2022-10-07T16:50:55.639Z,16.37
2022-10-07T16:56:01.189Z,16.34
2022-10-07T17:01:04.244Z,16.28
2022-10-07T17:06:07.968Z,16.25
2022-10-07T17:11:11.121Z,16.29
2022-10-07T17:16:13.603Z,16.26
2022-10-07T17:21:15.071Z,16.17
2022-10-07T17:26:17.249Z,16.20
2022-10-07T17:31:18.766Z,16.21
2022-10-07T17:36:21.251Z,16.16
2022-10-07T17:41:27.002Z,16.02
2022-10-07T17:46:32.456Z,16.09
2022-10-07T17:51:34.746Z,16.13
2022-10-07T17:56:36.297Z,16.08
2022-10-07T18:01:37.927Z,15.98
2022-10-07T18:06:39.691Z,15.90
2022-10-07T18:11:59.443Z,15.88
2022-10-07T18:17:01.538Z,15.76
2022-10-07T18:22:03.049Z,15.81
2022-10-07T18:27:04.474Z,15.82
2022-10-07T18:32:07.319Z,15.83
2022-10-07T18:37:08.859Z,15.78
2022-10-07T18:42:10.297Z,15.91
2022-10-07T18:47:11.786Z,15.98
2022-10-07T18:52:13.308Z,16.01
2022-10-07T18:57:14.733Z,15.97
2022-10-07T19:02:16.382Z,16.00
2022-10-07T19:07:17.808Z,15.93
2022-10-07T19:12:37.729Z,15.94
2022-10-07T19:17:39.119Z,15.93
2022-10-07T19:22:40.557Z,15.89
2022-10-07T19:27:41.963Z,15.95
2022-10-07T19:32:44.886Z,15.81
2022-10-07T19:37:46.596Z,15.85
2022-10-07T19:42:48.234Z,15.83
2022-10-07T19:47:49.669Z,15.84
2022-10-07T19:52:53.326Z,15.92
2022-10-07T19:57:59.655Z,15.95
2022-10-07T20:03:01.088Z,15.95
2022-10-07T20:08:05.687Z,15.92
2022-10-07T20:13:10.100Z,15.85
2022-10-07T20:18:11.583Z,15.88
2022-10-07T20:23:13.625Z,15.82
2022-10-07T20:28:15.150Z,15.74
2022-10-07T20:33:16.550Z,15.75
2022-10-07T20:38:17.948Z,15.83
2022-10-07T20:43:19.389Z,15.78
2022-10-07T20:48:20.972Z,15.82
2022-10-07T20:53:23.477Z,15.88
2022-10-07T20:58:24.877Z,15.81
2022-10-07T21:03:27.376Z,15.79
2022-10-07T21:08:31.223Z,15.79
2022-10-07T21:13:32.691Z,15.77
2022-10-07T21:18:34.612Z,15.73
2022-10-07T21:23:36.168Z,15.82
2022-10-07T21:28:38.694Z,15.86
2022-10-07T21:33:40.231Z,15.94
2022-10-07T21:38:41.801Z,15.86
2022-10-07T21:43:47.993Z,15.88
2022-10-07T21:48:49.649Z,15.90
2022-10-07T21:53:52.375Z,15.86
2022-10-07T21:58:54.208Z,15.92
2022-10-07T22:03:57.397Z,16.06
2022-10-07T22:08:58.796Z,16.01
2022-10-07T22:14:00.213Z,16.01
2022-10-07T22:19:01.627Z,15.97
2022-10-07T22:24:05.116Z,15.95
2022-10-07T22:29:09.491Z,15.90
2022-10-07T22:34:34.015Z,15.81
2022-10-07T22:39:35.472Z,15.83
2022-10-07T22:44:36.963Z,15.87
2022-10-07T22:49:38.354Z,15.91
2022-10-07T22:54:40.312Z,15.83
2022-10-07T22:59:41.739Z,15.83
2022-10-07T23:04:43.164Z,15.77
2022-10-07T23:09:44.572Z,15.81
2022-10-07T23:14:45.978Z,15.83
2022-10-07T23:19:47.458Z,15.86
2022-10-07T23:24:48.891Z,15.90
2022-10-07T23:29:50.296Z,15.93
2022-10-07T23:34:51.683Z,15.92
2022-10-07T23:39:53.085Z,15.90
2022-10-07T23:44:54.493Z,15.81
2022-10-07T23:49:55.945Z,15.77
2022-10-07T23:54:57.384Z,15.77
2022-10-07T23:59:58.805Z,15.71
